หน้าหลัก
METAR-TAF:

METAR-TAF

ท่าอากาศยาน :

ยาคุตสค์, รัสเซีย

ละติจูด: 62-01N, ลองจิจูด: 129-43E, ความสูง: 103 ม.

การสังเกตสภาพอากาศปัจจุบัน

รายงานได้ทำขึ้นเมื่อ 29 นาทีที่แล้ว ณ เวลา 06:00 UTC
ลม 10 นอตจากเหนือ/ตะวันตกเฉียงเหนือ
อุณหภูมิ -5°C
ความชื้น 30%
ความกดอากาศ 1017 hPa
ทัศนวิสัย 10 กม. หรือมากกว่า
ไม่มีเมฆต่ำกว่า 1,500 ม. และไม่มีเมฆคิวมูโลนิมบัส

METAR: UEEE 130600Z 34005MPS CAVOK M05/M20 Q1017 R23/610360 NOSIG RMK QFE754

เวลา: 15:29 (06:29 UTC)

การพยากรณ์

รายงานได้ทำขึ้นเมื่อ 1 ชั่วโมงและ 29 นาทีที่แล้ว ณ เวลา 05:00 UTC
การพยากรณ์มีผลตั้งแต่วันที่ 13 ณ เวลา 06 UTC จนถึงวันที่ 14 ณ เวลา 12 UTC
ลม 10 นอตจากตะวันตกเฉียงเหนือโดยมีลมกระโชกได้ถึง19 นอต
ทัศนวิสัย 10 กม. หรือมากกว่า
ไม่มีเมฆต่ำกว่า 1,500 ม. และไม่มีเมฆคิวมูโลนิมบัส

TAF: UEEE 130500Z 1306/1412 31005G10MPS CAVOK

สังเกตการณ์สภาพอากาศและพยากรณ์อากาศของสนามบินมากกว่า 4000 แห่ง (รายงาน METAR และ TAF).

สถานีที่ดูได้จะแสดงไว้ด้วยจุดสีเหลืองและสีแดงบนแผนที่.

เลื่อนเมาส์ไปเหนือจุดเพื่อดูชื่อสถานี.

แล้วคลิกเพื่อดูสังเกตการณ์และการพยากรณ์สภาพอากาศ.

ในการเปลี่ยนแผนที่: คลิกที่ปุ่มสีเขียวที่มีกากบาทสีดำเพื่อซูมเข้า; ที่ปุ่มสีเขียวที่มีขีดเพื่อซูมออก; หรือที่ลูกศรสีเขียวเพื่อไปยังแผนที่ที่อยู่ติดกัน.


METAR-TAF: